Time;durP1;ratioP1;P1;durP2;ratioP2;P2;SDS_P1;SDS_P2;PMS_P1;PMS_P2;Temp;Humidity;BMP_temperature;BMP_pressure;BME280_temperature;BME280_humidity;BME280_pressure;Samples;Min_cycle;Max_cycle;Signal;HPM_P1;HPM_P2
2023/11/14 00:02:08;;;;;;;;;0.00;0.00;;;;;15.46;100.00;100835.16;5058368;28;45325;-82
2023/11/14 00:04:35;;;;;;;;;0.00;0.00;;;;;15.43;100.00;100841.41;5057143;28;48045;-82
2023/11/14 00:07:03;;;;;;;;;0.00;0.00;;;;;15.34;100.00;100847.09;5058644;28;45349;-82
2023/11/14 00:09:29;;;;;;;;;0.00;0.00;;;;;15.33;100.00;100849.78;5057526;28;45409;-82
2023/11/14 00:11:55;;;;;;;;;0.00;0.00;;;;;15.28;100.00;100849.97;5058512;28;45408;-82
2023/11/14 00:14:21;;;;;;;;;0.00;0.00;;;;;15.24;100.00;100848.44;5058373;28;46567;-82
2023/11/14 00:16:46;;;;;;;;;0.00;0.00;;;;;15.31;100.00;100836.75;5057831;28;45465;-81
2023/11/14 00:19:12;;;;;;;;;0.00;0.00;;;;;15.29;100.00;100849.91;5057500;28;45378;-82
2023/11/14 00:21:37;;;;;;;;;0.00;0.00;;;;;15.25;100.00;100832.63;5057119;28;45598;-82
2023/11/14 00:24:03;;;;;;;;;0.00;0.00;;;;;15.29;100.00;100836.81;5057761;28;56087;-82
2023/11/14 00:26:28;;;;;;;;;0.00;0.00;;;;;15.32;100.00;100843.66;5057734;28;45367;-82
2023/11/14 00:28:54;;;;;;;;;0.00;0.00;;;;;15.31;100.00;100843.75;5057165;28;69136;-80
2023/11/14 00:31:19;;;;;;;;;0.00;0.00;;;;;15.32;100.00;100851.53;5057481;28;45525;-82
2023/11/14 00:33:44;;;;;;;;;0.00;0.00;;;;;15.24;100.00;100843.19;5055719;28;71258;-82
2023/11/14 00:36:10;;;;;;;;;0.00;0.00;;;;;15.29;100.00;100855.16;5055459;28;72050;-81
2023/11/14 00:38:35;;;;;;;;;0.75;0.75;;;;;15.27;100.00;100864.88;5057791;28;45373;-82
2023/11/14 00:41:01;;;;;;;;;0.00;0.00;;;;;15.31;100.00;100857.72;5057787;28;45292;-81
2023/11/14 00:43:27;;;;;;;;;0.00;0.00;;;;;15.30;100.00;100853.38;5057710;28;46730;-81
2023/11/14 00:45:52;;;;;;;;;0.00;0.00;;;;;15.28;100.00;100847.34;5039282;28;45313;-82
2023/11/14 00:48:17;;;;;;;;;0.00;0.00;;;;;15.29;100.00;100846.44;5038956;28;62529;-82
2023/11/14 00:50:43;;;;;;;;;0.00;0.00;;;;;15.24;100.00;100849.28;5056554;28;45303;-81
2023/11/14 00:53:08;;;;;;;;;0.00;0.00;;;;;15.27;100.00;100848.31;5056391;28;46734;-81
2023/11/14 00:55:34;;;;;;;;;0.00;0.00;;;;;15.25;100.00;100839.66;5056614;28;67483;-81
2023/11/14 00:57:59;;;;;;;;;0.00;0.00;;;;;15.22;100.00;100837.16;5057571;28;45324;-82
2023/11/14 01:00:25;;;;;;;;;0.00;0.00;;;;;15.25;100.00;100855.38;5055921;28;45572;-81
2023/11/14 01:02:53;;;;;;;;;0.00;0.00;;;;;15.12;100.00;100870.84;5056040;28;46416;-82
2023/11/14 01:05:19;;;;;;;;;0.00;0.00;;;;;15.25;100.00;100869.34;5056127;28;45398;-81
2023/11/14 01:07:44;;;;;;;;;0.00;0.00;;;;;15.18;100.00;100878.41;5057419;27;45497;-82
2023/11/14 01:10:11;;;;;;;;;0.00;0.00;;;;;15.26;100.00;100888.53;5056682;28;60203;-82
2023/11/14 01:12:36;;;;;;;;;0.00;0.00;;;;;15.28;100.00;100884.06;5056926;28;46531;-81
2023/11/14 01:15:02;;;;;;;;;0.00;0.00;;;;;15.23;100.00;100876.44;5055653;28;45386;-81
2023/11/14 01:17:28;;;;;;;;;0.00;0.00;;;;;15.24;100.00;100903.50;5057272;28;45333;-81
2023/11/14 01:19:53;;;;;;;;;0.00;0.00;;;;;15.20;100.00;100907.19;5056069;28;45586;-81
2023/11/14 01:22:18;;;;;;;;;0.00;0.00;;;;;15.10;100.00;100918.09;5039072;28;47276;-81
2023/11/14 01:24:44;;;;;;;;;0.00;0.00;;;;;15.03;100.00;100927.16;5055700;28;45458;-81
2023/11/14 01:27:09;;;;;;;;;0.00;0.00;;;;;15.02;100.00;100935.91;5057086;28;45365;-81
2023/11/14 01:29:35;;;;;;;;;0.00;0.00;;;;;15.02;100.00;100922.81;5056570;28;45575;-81
2023/11/14 01:32:00;;;;;;;;;0.00;0.00;;;;;15.06;100.00;100934.88;5056891;28;45434;-81
2023/11/14 01:34:25;;;;;;;;;0.00;0.00;;;;;15.04;100.00;100923.63;5056943;28;45393;-81
2023/11/14 01:36:55;;;;;;;;;0.00;0.00;;;;;14.97;100.00;100927.44;5056933;28;45428;-82
2023/11/14 01:39:21;;;;;;;;;0.00;0.00;;;;;14.96;100.00;100936.19;5055701;28;45307;-81
2023/11/14 01:41:47;;;;;;;;;0.00;0.00;;;;;14.95;100.00;100931.91;5056734;28;46392;-81
2023/11/14 01:44:12;;;;;;;;;0.00;0.00;;;;;15.00;100.00;100932.50;5056423;28;45325;-81
2023/11/14 01:46:38;;;;;;;;;0.00;0.00;;;;;14.99;100.00;100933.44;5056783;28;45523;-81
2023/11/14 01:49:03;;;;;;;;;0.00;0.00;;;;;14.99;100.00;100951.81;5054679;28;70389;-81
2023/11/14 01:51:29;;;;;;;;;0.00;0.00;;;;;15.03;100.00;100939.41;5055390;28;45366;-81
2023/11/14 01:53:55;;;;;;;;;0.00;0.00;;;;;15.05;100.00;100937.56;5054534;28;71125;-81
2023/11/14 01:56:20;;;;;;;;;0.00;0.00;;;;;15.02;100.00;100927.22;5038773;28;45367;-81
2023/11/14 01:58:46;;;;;;;;;0.00;0.00;;;;;15.05;100.00;100917.44;5055364;28;67611;-81
2023/11/14 02:01:13;;;;;;;;;0.00;0.00;;;;;15.04;100.00;100913.13;5055915;28;61196;-81
2023/11/14 02:03:39;;;;;;;;;0.00;0.00;;;;;15.04;100.00;100913.13;5056324;28;45234;-81
2023/11/14 02:06:05;;;;;;;;;0.00;0.00;;;;;15.02;100.00;100924.59;5038551;28;45265;-81
2023/11/14 02:08:30;;;;;;;;;0.00;0.00;;;;;15.09;100.00;100939.13;5056507;28;45336;-81
2023/11/14 02:10:56;;;;;;;;;0.00;0.00;;;;;15.04;100.00;100954.19;5056300;28;46129;-81
2023/11/14 02:13:22;;;;;;;;;1.00;0.00;;;;;15.02;100.00;100961.28;5055897;28;45380;-81
2023/11/14 02:15:47;;;;;;;;;0.00;0.00;;;;;15.05;100.00;100954.16;5055232;28;45404;-81
2023/11/14 02:18:17;;;;;;;;;0.00;0.00;;;;;15.04;100.00;100939.34;5056473;28;45461;-81
2023/11/14 02:20:42;;;;;;;;;0.00;0.00;;;;;15.03;100.00;100942.88;5038200;28;47296;-81
2023/11/14 02:23:10;;;;;;;;;0.00;0.00;;;;;15.02;100.00;100935.91;5038084;28;45610;-81
2023/11/14 02:25:35;;;;;;;;;0.00;0.00;;;;;15.07;100.00;100928.72;5054893;28;45415;-81
2023/11/14 02:28:01;;;;;;;;;0.00;0.00;;;;;15.07;100.00;100935.72;5053715;28;66459;-81
2023/11/14 02:30:26;;;;;;;;;0.00;0.00;;;;;15.03;100.00;100934.16;5054967;28;74670;-82
2023/11/14 02:32:51;;;;;;;;;0.00;0.00;;;;;15.06;100.00;100910.41;5054827;28;45324;-81
2023/11/14 02:35:17;;;;;;;;;0.00;0.00;;;;;15.13;100.00;100924.13;5055083;28;68093;-81
2023/11/14 02:37:42;;;;;;;;;0.00;0.00;;;;;15.20;100.00;100933.41;5054789;28;45352;-82
2023/11/14 02:40:08;;;;;;;;;0.00;0.00;;;;;15.22;100.00;100932.41;5054990;28;75568;-81
2023/11/14 02:42:34;;;;;;;;;0.00;0.00;;;;;15.26;100.00;100927.88;5055478;28;45327;-81
2023/11/14 02:44:59;;;;;;;;;0.00;0.00;;;;;15.24;100.00;100934.97;5054212;28;45646;-81
2023/11/14 02:47:25;;;;;;;;;0.00;0.00;;;;;15.23;100.00;100933.25;5055918;28;45358;-81
2023/11/14 02:50:20;;;;;;;;;0.00;0.00;;;;;15.25;100.00;100942.78;5054677;28;74244;-81
2023/11/14 02:52:45;;;;;;;;;1.00;1.00;;;;;15.26;100.00;100930.50;5054432;28;45453;-81
2023/11/14 02:55:10;;;;;;;;;0.00;0.00;;;;;15.28;100.00;100926.03;5055516;28;52381;-81
2023/11/14 02:57:36;;;;;;;;;0.00;0.00;;;;;15.31;100.00;100927.69;5055540;28;45337;-81
2023/11/14 03:00:01;;;;;;;;;0.00;0.00;;;;;15.26;100.00;100936.59;5055474;28;45626;-81
2023/11/14 03:02:26;;;;;;;;;0.00;0.00;;;;;15.20;100.00;100947.38;5055201;28;59645;-81
2023/11/14 03:04:52;;;;;;;;;0.00;0.00;;;;;15.27;100.00;100940.94;5055748;28;45411;-81
2023/11/14 03:07:17;;;;;;;;;0.00;0.00;;;;;15.22;100.00;100937.66;5055719;28;45447;-81
2023/11/14 03:09:43;;;;;;;;;0.00;0.00;;;;;15.27;100.00;100933.06;5053966;28;46392;-81
2023/11/14 03:12:08;;;;;;;;;0.00;0.00;;;;;15.19;100.00;100935.19;5055544;28;45797;-81
2023/11/14 03:14:33;;;;;;;;;0.00;0.00;;;;;15.27;100.00;100916.47;5055114;28;59796;-81
2023/11/14 03:16:59;;;;;;;;;0.00;0.00;;;;;15.24;100.00;100924.47;5054224;28;45395;-81
2023/11/14 03:19:24;;;;;;;;;0.00;0.00;;;;;15.35;100.00;100906.47;5053372;28;70168;-81
2023/11/14 03:21:49;;;;;;;;;0.00;0.00;;;;;15.32;100.00;100905.75;5055285;28;52136;-81
2023/11/14 03:24:15;;;;;;;;;0.00;0.00;;;;;15.35;100.00;100908.25;5054066;28;69184;-81
2023/11/14 03:26:40;;;;;;;;;0.00;0.00;;;;;15.40;100.00;100908.91;5055112;28;45615;-81
2023/11/14 03:29:06;;;;;;;;;0.00;0.00;;;;;15.35;100.00;100916.97;5054066;28;76417;-81
2023/11/14 03:31:31;;;;;;;;;1.50;0.00;;;;;15.33;100.00;100928.47;5055286;28;45316;-82
2023/11/14 03:33:57;;;;;;;;;0.00;0.00;;;;;15.42;100.00;100921.00;5053255;28;68299;-81
2023/11/14 03:36:22;;;;;;;;;0.00;0.00;;;;;15.42;100.00;100915.78;5054042;28;45316;-81
2023/11/14 03:38:47;;;;;;;;;0.00;0.00;;;;;15.32;100.00;100924.13;5053958;28;68024;-81
2023/11/14 03:41:13;;;;;;;;;0.00;0.00;;;;;15.41;100.00;100919.31;5054986;28;49851;-81
2023/11/14 03:43:38;;;;;;;;;0.00;0.00;;;;;15.36;100.00;100910.81;5036233;28;69250;-81
2023/11/14 03:46:04;;;;;;;;;0.00;0.00;;;;;15.38;100.00;100898.47;5053091;28;67111;-81
2023/11/14 03:48:29;;;;;;;;;0.00;0.00;;;;;15.42;100.00;100891.31;5054317;28;70076;-81
2023/11/14 03:50:55;;;;;;;;;0.00;0.00;;;;;15.49;100.00;100897.97;5053881;28;45343;-81
2023/11/14 03:53:21;;;;;;;;;0.00;0.00;;;;;15.49;100.00;100900.59;5053688;28;45337;-81
2023/11/14 03:55:47;;;;;;;;;0.00;0.00;;;;;15.54;100.00;100893.34;5055221;28;45440;-81
2023/11/14 03:58:13;;;;;;;;;0.00;0.00;;;;;15.54;100.00;100887.25;5056363;28;46182;-81
2023/11/14 04:00:38;;;;;;;;;0.00;0.00;;;;;15.48;100.00;100888.41;5058394;28;45345;-81
2023/11/14 04:03:03;;;;;;;;;0.00;0.00;;;;;15.52;100.00;100884.69;5058528;28;45398;-81
2023/11/14 04:05:29;;;;;;;;;0.00;0.00;;;;;15.52;100.00;100894.34;5057494;28;70425;-81
2023/11/14 04:07:55;;;;;;;;;0.00;0.00;;;;;15.56;100.00;100877.53;5055571;28;69547;-81
2023/11/14 04:10:21;;;;;;;;;0.00;0.00;;;;;15.52;100.00;100886.47;5057015;28;45417;-81
2023/11/14 04:12:46;;;;;;;;;0.00;0.00;;;;;15.38;100.00;100893.22;5057212;28;45420;-82
2023/11/14 04:15:11;;;;;;;;;0.00;0.00;;;;;15.38;100.00;100906.34;5057402;28;66543;-81
2023/11/14 04:17:38;;;;;;;;;0.00;0.00;;;;;15.40;100.00;100886.13;5058008;28;46143;-81
2023/11/14 04:20:05;;;;;;;;;0.00;0.00;;;;;15.32;100.00;100898.75;5056864;28;45373;-81
2023/11/14 04:22:30;;;;;;;;;0.00;0.00;;;;;15.37;100.00;100895.91;5058146;28;45353;-81
2023/11/14 04:24:57;;;;;;;;;0.00;0.00;;;;;15.28;100.00;100919.03;5058052;28;45368;-81
2023/11/14 04:27:22;;;;;;;;;0.00;0.00;;;;;15.31;100.00;100910.16;5056742;28;46612;-81
2023/11/14 04:29:48;;;;;;;;;0.00;0.00;;;;;15.32;100.00;100903.16;5057705;28;45550;-80
2023/11/14 04:32:13;;;;;;;;;0.00;0.00;;;;;15.24;100.00;100908.75;5058122;28;45409;-80
2023/11/14 04:34:39;;;;;;;;;0.00;0.00;;;;;15.21;100.00;100917.63;5056987;28;69764;-80
2023/11/14 04:37:04;;;;;;;;;0.00;0.00;;;;;15.24;100.00;100930.56;5056123;28;45399;-80
2023/11/14 04:39:30;;;;;;;;;0.00;0.00;;;;;15.19;100.00;100927.31;5056527;28;45436;-81
2023/11/14 04:41:55;;;;;;;;;0.00;0.00;;;;;15.20;100.00;100934.25;5056957;28;68985;-80
2023/11/14 04:44:20;;;;;;;;;0.00;0.00;;;;;15.12;100.00;100943.38;5038626;28;70448;-82
2023/11/14 04:46:46;;;;;;;;;0.00;0.00;;;;;15.11;100.00;100947.78;5056594;28;75684;-81
2023/11/14 04:49:11;;;;;;;;;0.00;0.00;;;;;15.09;100.00;100962.72;5056623;28;69337;-81
2023/11/14 04:51:37;;;;;;;;;0.00;0.00;;;;;15.13;100.00;100963.44;5056191;28;45299;-81
2023/11/14 04:54:02;;;;;;;;;0.00;0.00;;;;;15.07;100.00;100956.69;5057024;28;57267;-81
2023/11/14 04:56:28;;;;;;;;;0.00;0.00;;;;;15.05;100.00;100959.38;5057475;28;46899;-81
2023/11/14 04:58:53;;;;;;;;;0.00;0.00;;;;;14.95;100.00;100983.44;5056924;28;63280;-82
2023/11/14 05:01:18;;;;;;;;;0.00;0.00;;;;;15.09;100.00;100960.09;5056238;28;45507;-81
2023/11/14 05:03:44;;;;;;;;;0.00;0.00;;;;;15.17;100.00;100952.75;5057432;28;45338;-81
2023/11/14 05:06:09;;;;;;;;;0.00;0.00;;;;;15.11;100.00;100937.28;5055903;28;74568;-82
2023/11/14 05:08:34;;;;;;;;;0.00;0.00;;;;;15.22;100.00;100907.97;5055837;28;71983;-80
2023/11/14 05:11:04;;;;;;;;;0.00;0.00;;;;;15.28;100.00;100874.47;5056535;28;69033;-81
2023/11/14 05:13:30;;;;;;;;;0.00;0.00;;;;;15.27;100.00;100883.22;5055974;28;45497;-81
2023/11/14 05:15:55;;;;;;;;;0.00;0.00;;;;;15.32;100.00;100896.13;5056118;28;74859;-81
2023/11/14 05:18:22;;;;;;;;;0.00;0.00;;;;;15.27;100.00;100898.13;5056249;28;71726;-81
2023/11/14 05:20:47;;;;;;;;;0.00;0.00;;;;;15.34;100.00;100890.81;5056820;28;45314;-81
2023/11/14 05:23:13;;;;;;;;;0.00;0.00;;;;;15.38;100.00;100881.88;5056585;28;60573;-81
2023/11/14 05:25:39;;;;;;;;;0.00;0.00;;;;;15.36;100.00;100854.88;5056614;28;46496;-81
2023/11/14 05:28:05;;;;;;;;;0.00;0.00;;;;;15.40;100.00;100852.03;5055742;28;45493;-80
2023/11/14 05:30:30;;;;;;;;;0.00;0.00;;;;;15.28;100.00;100865.72;5057101;28;45712;-81
2023/11/14 05:32:57;;;;;;;;;0.00;0.00;;;;;15.31;100.00;100889.19;5057218;28;45418;-81
2023/11/14 05:35:22;;;;;;;;;15.00;15.00;;;;;15.38;100.00;100900.22;5056445;28;46298;-80
2023/11/14 05:37:47;;;;;;;;;0.00;0.00;;;;;15.38;100.00;100895.84;5056083;28;69586;-80
2023/11/14 05:40:13;;;;;;;;;0.00;0.00;;;;;15.32;100.00;100909.22;5054920;28;65746;-81
2023/11/14 05:42:39;;;;;;;;;0.00;0.00;;;;;15.30;100.00;100918.94;5055625;28;45401;-81
2023/11/14 05:45:08;;;;;;;;;0.00;0.00;;;;;15.36;100.00;100878.47;5055532;28;46215;-81
2023/11/14 05:47:33;;;;;;;;;0.00;0.00;;;;;15.38;100.00;100867.00;5056742;28;45313;-81
2023/11/14 05:49:59;;;;;;;;;0.00;0.00;;;;;15.36;100.00;100878.47;5056370;28;45634;-81
2023/11/14 05:52:24;;;;;;;;;0.00;0.00;;;;;15.38;100.00;100887.13;5055900;28;67251;-81
2023/11/14 05:54:49;;;;;;;;;0.00;0.00;;;;;15.35;100.00;100897.78;5054229;28;75559;-81
2023/11/14 05:57:16;;;;;;;;;0.00;0.00;;;;;15.35;100.00;100903.00;5055722;28;71767;-80
2023/11/14 05:59:42;;;;;;;;;0.00;0.00;;;;;15.42;100.00;100900.03;5055449;28;45385;-81
2023/11/14 06:02:09;;;;;;;;;0.00;0.00;;;;;15.38;100.00;100881.88;5056554;28;45293;-81
2023/11/14 06:04:35;;;;;;;;;0.00;0.00;;;;;15.37;100.00;100882.81;5054763;28;45426;-81
2023/11/14 06:07:00;;;;;;;;;0.00;0.00;;;;;15.35;100.00;100868.91;5056335;28;45429;-81
2023/11/14 06:09:25;;;;;;;;;0.00;0.00;;;;;15.32;100.00;100867.28;5037503;28;71274;-81
2023/11/14 06:11:51;;;;;;;;;0.00;0.00;;;;;15.34;100.00;100844.47;5054652;28;55041;-81
2023/11/14 06:14:16;;;;;;;;;0.00;0.00;;;;;15.34;100.00;100844.47;5037250;28;75531;-80
2023/11/14 06:16:41;;;;;;;;;0.00;0.00;;;;;15.31;100.00;100841.97;5037426;28;68116;-81
2023/11/14 06:19:07;;;;;;;;;0.00;0.00;;;;;15.34;100.00;100833.97;5053097;28;69382;-81
2023/11/14 06:21:33;;;;;;;;;0.00;0.00;;;;;15.37;100.00;100852.19;5054790;28;45453;-81
2023/11/14 06:23:58;;;;;;;;;0.00;0.00;;;;;15.40;100.00;100856.44;5056119;28;45348;-81
2023/11/14 06:26:23;;;;;;;;;0.00;0.00;;;;;15.42;100.00;100847.56;5055042;28;73111;-81
2023/11/14 06:28:49;;;;;;;;;0.00;0.00;;;;;15.42;100.00;100844.09;5056193;28;46010;-81
2023/11/14 06:31:14;;;;;;;;;0.00;0.00;;;;;15.41;100.00;100847.63;5069518;28;59051;-81
2023/11/14 06:33:40;;;;;;;;;0.00;0.00;;;;;15.44;100.00;100844.88;5075753;27;46575;-80
2023/11/14 06:36:06;;;;;;;;;0.00;0.00;;;;;15.44;100.00;100861.47;5075995;27;45344;-81
2023/11/14 06:38:31;;;;;;;;;0.00;0.00;;;;;15.42;100.00;100865.94;5075032;28;45377;-81
2023/11/14 06:40:56;;;;;;;;;0.00;0.00;;;;;15.51;100.00;100879.53;5077467;27;45442;-82
2023/11/14 06:43:22;;;;;;;;;0.00;0.00;;;;;15.40;100.00;100878.28;5073704;28;75281;-84
2023/11/14 06:45:47;;;;;;;;;0.00;0.00;;;;;15.43;100.00;100880.75;5057789;28;45880;-82
2023/11/14 06:48:12;;;;;;;;;0.00;0.00;;;;;15.38;100.00;100861.75;5072536;27;69415;-83
2023/11/14 06:50:39;;;;;;;;;0.00;0.00;;;;;15.46;100.00;100853.53;5078530;27;68125;-82
2023/11/14 06:53:06;;;;;;;;;0.00;0.00;;;;;15.40;100.00;100865.16;5073923;28;45529;-83
2023/11/14 06:55:32;;;;;;;;;0.00;0.00;;;;;15.42;100.00;100863.31;5075671;27;45438;-82
2023/11/14 06:57:58;;;;;;;;;0.00;0.00;;;;;15.46;100.00;100856.16;5077927;27;68048;-82
2023/11/14 07:00:23;;;;;;;;;0.00;0.00;;;;;15.47;100.00;100865.69;5076100;27;45549;-84
2023/11/14 07:02:49;;;;;;;;;0.00;0.00;;;;;15.52;100.00;100847.13;5080037;27;45754;-82
2023/11/14 07:05:14;;;;;;;;;0.00;0.00;;;;;15.45;100.00;100841.31;5070177;27;45576;-81
2023/11/14 07:07:39;;;;;;;;;0.00;0.00;;;;;15.53;100.00;100840.97;5071728;27;60638;-80
2023/11/14 07:10:08;;;;;;;;;0.00;0.00;;;;;15.51;100.00;100869.91;5069998;27;45293;-81
2023/11/14 07:12:34;;;;;;;;;0.00;0.00;;;;;15.50;100.00;100883.94;5069776;27;46609;-82
2023/11/14 07:15:00;;;;;;;;;0.00;0.00;;;;;15.58;100.00;100888.81;5074082;27;45433;-81
2023/11/14 07:17:25;;;;;;;;;0.00;0.00;;;;;15.54;100.00;100866.28;5089820;27;45650;-82
2023/11/14 07:19:51;;;;;;;;;0.00;0.00;;;;;15.57;100.00;100859.09;5075207;27;45659;-82
2023/11/14 07:22:17;;;;;;;;;0.00;0.00;;;;;15.48;100.00;100851.69;5056828;28;48053;-81
2023/11/14 07:24:43;;;;;;;;;0.00;0.00;;;;;15.58;100.00;100847.69;5086430;27;45435;-82
2023/11/14 07:27:08;;;;;;;;;0.00;0.00;;;;;15.57;100.00;100851.22;5062390;27;45508;-80
2023/11/14 07:29:34;;;;;;;;;0.00;0.00;;;;;15.61;100.00;100855.41;5089427;27;46175;-81
2023/11/14 07:31:59;;;;;;;;;0.00;0.00;;;;;15.61;100.00;100852.78;5075867;27;45557;-82
2023/11/14 07:34:25;;;;;;;;;0.00;0.00;;;;;15.59;100.00;100870.38;5077224;27;73148;-79
2023/11/14 07:36:51;;;;;;;;;0.00;0.00;;;;;15.64;100.00;100873.63;5076340;28;45542;-81
2023/11/14 07:39:17;;;;;;;;;0.00;0.00;;;;;15.61;100.00;100865.06;5068851;27;45571;-81
2023/11/14 07:41:43;;;;;;;;;0.00;0.00;;;;;15.63;100.00;100876.31;5071334;28;46564;-80
2023/11/14 07:44:09;;;;;;;;;0.00;0.00;;;;;15.67;100.00;100876.13;5075420;27;45357;-79
2023/11/14 07:46:35;;;;;;;;;12.00;12.00;;;;;15.75;100.00;100874.91;5059839;28;45394;-81
2023/11/14 07:49:01;;;;;;;;;0.00;0.00;;;;;15.70;100.00;100893.47;5075494;27;45575;-80
2023/11/14 07:51:26;;;;;;;;;0.00;0.00;;;;;15.70;100.00;100879.53;5075967;28;45592;-80
2023/11/14 07:53:53;;;;;;;;;0.00;0.00;;;;;15.73;100.00;100877.59;5078541;27;45467;-80
2023/11/14 07:56:19;;;;;;;;;0.00;0.00;;;;;15.71;100.00;100882.03;5071872;27;45833;-80
2023/11/14 07:58:44;;;;;;;;;0.00;0.00;;;;;15.75;100.00;100894.16;5074074;27;45652;-81
2023/11/14 08:01:09;;;;;;;;;0.00;0.00;;;;;15.79;100.00;100892.22;5069729;27;67328;-79
2023/11/14 08:03:35;;;;;;;;;0.00;0.00;;;;;15.81;100.00;100903.50;5077916;27;56339;-80
2023/11/14 08:06:00;;;;;;;;;0.00;0.00;;;;;15.83;100.00;100896.41;5086979;27;63307;-80
2023/11/14 08:08:26;;;;;;;;;0.00;0.00;;;;;15.84;100.00;100888.47;5091263;27;64431;-80
2023/11/14 08:10:52;;;;;;;;;0.00;0.00;;;;;15.89;100.00;100893.47;5103237;27;46206;-79
2023/11/14 08:13:17;;;;;;;;;0.00;0.00;;;;;15.93;100.00;100913.41;5064212;27;45554;-80
2023/11/14 08:15:43;;;;;;;;;0.00;0.00;;;;;15.91;100.00;100924.91;5077178;27;45380;-79
2023/11/14 08:18:08;;;;;;;;;0.00;0.00;;;;;15.86;100.00;100914.59;5068038;27;45555;-80
2023/11/14 08:20:34;;;;;;;;;0.00;0.00;;;;;15.92;100.00;100913.50;5076821;28;46202;-79
2023/11/14 08:22:59;;;;;;;;;0.00;0.00;;;;;15.84;100.00;100887.59;5077302;27;45259;-79
2023/11/14 08:25:25;;;;;;;;;0.00;0.00;;;;;15.77;100.00;100884.44;5075591;27;45440;-79
2023/11/14 08:27:50;;;;;;;;;0.00;0.00;;;;;15.77;100.00;100910.69;5076095;28;45595;-80
2023/11/14 08:30:16;;;;;;;;;0.00;0.00;;;;;15.75;100.00;100924.78;5079448;27;46553;-78
2023/11/14 08:32:42;;;;;;;;;0.00;0.00;;;;;15.76;100.00;100918.63;5084409;27;45424;-80
2023/11/14 08:35:09;;;;;;;;;0.00;0.00;;;;;15.72;100.00;100907.38;5059296;27;45377;-78
2023/11/14 08:37:34;;;;;;;;;0.00;0.00;;;;;15.72;100.00;100889.00;5077385;27;45411;-77
2023/11/14 08:40:00;;;;;;;;;0.00;0.00;;;;;15.85;100.00;100852.56;5064943;27;46053;-81
2023/11/14 08:42:27;;;;;;;;;0.00;0.00;;;;;15.74;100.00;100852.22;5075712;27;45508;-82
2023/11/14 08:44:53;;;;;;;;;0.00;0.00;;;;;15.75;100.00;100849.53;5076596;27;45396;-81
2023/11/14 08:47:19;;;;;;;;;0.00;0.00;;;;;15.78;100.00;100841.50;5079502;27;45514;-81
2023/11/14 08:49:44;;;;;;;;;0.00;0.00;;;;;15.76;100.00;100826.75;5074652;27;45994;-80
2023/11/14 08:52:09;;;;;;;;;0.00;0.00;;;;;15.65;100.00;100819.38;5077627;27;45608;-81
2023/11/14 08:54:35;;;;;;;;;0.00;0.00;;;;;15.60;100.00;100810.88;5070595;27;69503;-81
2023/11/14 08:57:01;;;;;;;;;0.00;0.00;;;;;15.63;100.00;100806.31;5076206;27;45560;-80
2023/11/14 08:59:27;;;;;;;;;0.00;0.00;;;;;15.59;100.00;100802.16;5076447;27;47203;-81
2023/11/14 09:01:52;;;;;;;;;0.00;0.00;;;;;15.57;100.00;100808.41;5076011;27;73029;-82
2023/11/14 09:04:18;;;;;;;;;0.00;0.00;;;;;15.62;100.00;100798.53;5083948;27;45375;-81
2023/11/14 09:06:43;;;;;;;;;0.00;0.00;;;;;15.64;100.00;100794.06;5096463;27;45339;-81
2023/11/14 09:09:09;;;;;;;;;0.00;0.00;;;;;15.65;100.00;100786.09;5080473;27;45561;-81
2023/11/14 09:11:35;;;;;;;;;1.00;1.00;;;;;15.73;100.00;100780.50;5087655;27;45416;-81
2023/11/14 09:14:02;;;;;;;;;0.00;0.00;;;;;15.78;100.00;100773.25;5092987;27;45439;-82
2023/11/14 09:16:27;;;;;;;;;0.00;0.00;;;;;15.79;100.00;100772.34;5094311;27;45417;-81
2023/11/14 09:18:54;;;;;;;;;0.00;0.00;;;;;15.67;100.00;100784.28;5079890;27;49084;-81
2023/11/14 09:21:20;;;;;;;;;0.00;0.00;;;;;15.62;100.00;100791.53;5076773;27;45400;-82
2023/11/14 09:23:45;;;;;;;;;0.00;0.00;;;;;15.64;100.00;100792.28;5075831;27;45710;-81
2023/11/14 09:26:11;;;;;;;;;0.00;0.00;;;;;15.62;100.00;100801.16;5072984;27;45447;-81
2023/11/14 09:28:37;;;;;;;;;0.00;0.00;;;;;15.67;100.00;100809.66;5075067;28;47359;-81
2023/11/14 09:31:03;;;;;;;;;0.00;0.00;;;;;15.66;100.00;100803.56;5076408;27;45283;-82
2023/11/14 09:33:29;;;;;;;;;0.00;0.00;;;;;15.58;100.00;100807.47;5075771;28;45421;-81
2023/11/14 09:35:55;;;;;;;;;0.00;0.00;;;;;15.65;100.00;100793.97;5076430;27;45433;-81
2023/11/14 09:38:22;;;;;;;;;4.75;0.00;;;;;15.67;100.00;100776.41;5076677;27;46722;-82
2023/11/14 09:40:48;;;;;;;;;0.00;0.00;;;;;15.68;100.00;100761.50;5074985;27;45524;-81
2023/11/14 09:43:13;;;;;;;;;0.00;0.00;;;;;15.68;100.00;100777.25;5076043;27;45408;-80
2023/11/14 09:45:40;;;;;;;;;0.00;0.00;;;;;15.76;100.00;100785.59;5074010;28;64690;-81
2023/11/14 09:48:08;;;;;;;;;0.00;0.00;;;;;15.65;100.00;100796.59;5066082;27;46152;-82
2023/11/14 09:50:35;;;;;;;;;0.00;0.00;;;;;15.79;100.00;100787.25;5067098;28;45436;-82
2023/11/14 09:53:04;;;;;;;;;0.00;0.00;;;;;15.78;100.00;100781.13;5092128;27;45418;-81
2023/11/14 09:55:29;;;;;;;;;0.00;0.00;;;;;15.75;100.00;100778.69;5060681;28;45447;-81
2023/11/14 09:57:55;;;;;;;;;0.00;0.00;;;;;15.75;100.00;100785.69;5073795;27;46862;-81
2023/11/14 10:00:21;;;;;;;;;0.00;0.00;;;;;15.66;100.00;100777.31;5075672;28;45290;-82
2023/11/14 10:02:46;;;;;;;;;0.00;0.00;;;;;15.69;100.00;100778.94;5074504;27;61232;-79
2023/11/14 10:05:12;;;;;;;;;0.00;0.00;;;;;15.61;100.00;100783.72;5074325;27;71482;-81
2023/11/14 10:07:39;;;;;;;;;0.00;0.00;;;;;15.62;100.00;100786.28;5073200;27;73165;-79
2023/11/14 10:10:06;;;;;;;;;0.00;0.00;;;;;15.63;100.00;100787.13;5078429;27;45756;-80
2023/11/14 10:12:33;;;;;;;;;0.00;0.00;;;;;15.57;100.00;100780.41;5075852;27;45375;-82
2023/11/14 10:14:59;;;;;;;;;0.00;0.00;;;;;15.51;100.00;100785.09;5063175;27;45654;-81
2023/11/14 10:17:29;;;;;;;;;0.00;0.00;;;;;15.51;100.00;100782.47;5079617;27;45415;-82
2023/11/14 10:20:02;;;;;;;;;0.00;0.00;;;;;15.56;100.00;100770.81;5075736;27;45497;-80
2023/11/14 10:22:29;;;;;;;;;1.00;0.00;;;;;15.60;100.00;100777.63;5076341;27;45290;-81
2023/11/14 10:24:54;;;;;;;;;0.00;0.00;;;;;15.62;100.00;100769.66;5072957;27;70641;-80
2023/11/14 10:27:31;;;;;;;;;0.00;0.00;;;;;15.64;100.00;100763.44;5075595;27;45403;-80
2023/11/14 10:29:57;;;;;;;;;0.00;0.00;;;;;15.59;100.00;100761.97;5074078;27;45385;-82
2023/11/14 10:32:22;;;;;;;;;0.00;0.00;;;;;15.55;100.00;100771.75;5084448;27;45386;-82
2023/11/14 10:34:48;;;;;;;;;0.00;0.00;;;;;15.53;100.00;100778.00;5093861;27;70585;-81
2023/11/14 10:37:28;;;;;;;;;0.00;0.00;;;;;15.53;100.00;100763.13;5060353;28;46506;-82
2023/11/14 10:39:54;;;;;;;;;0.00;0.00;;;;;15.54;100.00;100756.94;5066202;28;45460;-80
2023/11/14 10:42:20;;;;;;;;;0.00;0.00;;;;;15.41;100.00;100753.22;5074346;27;45562;-82
2023/11/14 10:45:06;;;;;;;;;0.00;0.00;;;;;15.42;100.00;100745.28;5073402;28;45401;-80
2023/11/14 10:47:39;;;;;;;;;0.00;0.00;;;;;15.35;100.00;100756.97;5075084;27;47135;-80
2023/11/14 10:50:29;;;;;;;;;0.00;0.00;;;;;15.34;100.00;100764.91;5067884;28;45714;-78
2023/11/14 10:52:54;;;;;;;;;0.00;0.00;;;;;15.31;100.00;100770.34;5086098;27;45337;-80
2023/11/14 10:55:24;;;;;;;;;0.00;0.00;;;;;15.16;100.00;100762.28;5092642;27;45641;-81
2023/11/14 10:57:50;;;;;;;;;0.00;0.00;;;;;15.08;100.00;100751.28;5072874;27;50306;-83
2023/11/14 11:00:21;;;;;;;;;0.00;0.00;;;;;15.00;100.00;100758.66;5080312;27;45496;-82
2023/11/14 11:02:50;;;;;;;;;0.00;0.00;;;;;15.04;100.00;100753.22;5066695;27;45503;-79
2023/11/14 11:05:16;;;;;;;;;0.00;0.00;;;;;14.89;100.00;100764.41;5073560;28;45464;-81
2023/11/14 11:07:41;;;;;;;;;0.00;0.00;;;;;14.90;100.00;100753.84;5073645;27;49057;-81
2023/11/14 11:10:07;;;;;;;;;0.00;0.00;;;;;14.78;100.00;100753.56;5065542;28;72966;-81
2023/11/14 11:12:34;;;;;;;;;0.00;0.00;;;;;14.84;100.00;100753.28;5077729;28;45488;-82